Time;durP1;ratioP1;P1;durP2;ratioP2;P2;SDS_P1;SDS_P2;PMS_P1;PMS_P2;Temp;Humidity;BMP_temperature;BMP_pressure;BME280_temperature;BME280_humidity;BME280_pressure;Samples;Min_cycle;Max_cycle;Signal;HPM_P1;HPM_P2
2023/09/08 00:01:08;;;;;;;;;;;18.40;99.90;;;;;;5001065;28;20388;-62
2023/09/08 00:03:34;;;;;;;;;;;18.40;99.90;;;;;;5006536;28;19909;-62
2023/09/08 00:06:00;;;;;;;;;;;18.30;99.90;;;;;;4998866;28;19957;-62
2023/09/08 00:08:25;;;;;;;;;;;18.30;99.90;;;;;;4988296;28;19913;-62
2023/09/08 00:10:51;;;;;;;;;;;18.20;99.90;;;;;;5003915;28;19917;-62
2023/09/08 00:13:16;;;;;;;;;;;18.20;99.90;;;;;;5001459;28;20349;-62
2023/09/08 00:15:42;;;;;;;;;;;18.20;99.90;;;;;;4997434;28;20321;-62
2023/09/08 00:18:07;;;;;;;;;;;18.20;99.90;;;;;;5001584;28;20028;-62
2023/09/08 00:20:33;;;;;;;;;;;18.20;99.90;;;;;;5008976;28;20334;-62
2023/09/08 00:22:58;;;;;;;;;;;18.10;99.90;;;;;;5002130;28;19914;-62
2023/09/08 00:25:24;;;;;;;;;;;18.10;99.90;;;;;;5002486;28;19915;-62
2023/09/08 00:27:49;;;;;;;;;;;18.10;99.90;;;;;;4999899;28;20331;-62
2023/09/08 00:30:15;;;;;;;;;;;18.10;99.90;;;;;;5004684;28;20371;-62
2023/09/08 00:32:40;;;;;;;;;;;18.00;99.90;;;;;;5006644;28;20007;-62
2023/09/08 00:35:07;;;;;;;;;;;18.00;99.90;;;;;;4999943;28;20399;-64
2023/09/08 00:37:33;;;;;;;;;;;17.90;99.90;;;;;;5001501;28;20427;-61
2023/09/08 00:39:59;;;;;;;;;;;17.90;99.90;;;;;;4997394;28;19909;-62
2023/09/08 00:42:24;;;;;;;;;;;17.90;99.90;;;;;;5005225;28;20317;-62
2023/09/08 00:44:50;;;;;;;;;;;17.90;99.90;;;;;;5003279;28;19952;-62
2023/09/08 00:47:15;;;;;;;;;;;17.90;99.90;;;;;;5000050;28;20004;-62
2023/09/08 00:49:41;;;;;;;;;;;17.90;99.90;;;;;;4980855;28;19984;-62
2023/09/08 00:52:06;;;;;;;;;;;17.80;99.90;;;;;;4988217;28;19905;-64
2023/09/08 00:54:32;;;;;;;;;;;17.70;99.90;;;;;;5007380;28;19905;-61
2023/09/08 00:56:58;;;;;;;;;;;17.70;99.90;;;;;;4986090;28;19905;-62
2023/09/08 00:59:25;;;;;;;;;;;17.60;99.90;;;;;;5006683;28;20301;-62
2023/09/08 01:01:50;;;;;;;;;;;17.60;99.90;;;;;;5002157;28;19948;-62
2023/09/08 01:04:16;;;;;;;;;;;17.60;99.90;;;;;;5008705;28;19948;-62
2023/09/08 01:06:42;;;;;;;;;;;17.60;99.90;;;;;;4999047;28;19912;-62
2023/09/08 01:09:07;;;;;;;;;;;17.60;99.90;;;;;;5003235;28;19963;-62
2023/09/08 01:11:33;;;;;;;;;;;17.50;99.90;;;;;;5003045;28;19910;-62
2023/09/08 01:13:59;;;;;;;;;;;17.50;99.90;;;;;;4980195;28;19960;-62
2023/09/08 01:16:24;;;;;;;;;;;17.50;99.90;;;;;;5006181;28;20348;-62
2023/09/08 01:18:50;;;;;;;;;;;17.40;99.90;;;;;;4976198;28;19917;-62
2023/09/08 01:21:32;;;;;;;;;;;17.30;99.90;;;;;;5007694;28;19913;-62
2023/09/08 01:24:03;;;;;;;;;;;17.30;99.90;;;;;;4984236;28;20548;-62
2023/09/08 01:26:35;;;;;;;;;;;17.20;99.90;;;;;;4982714;28;20443;-62
2023/09/08 01:29:01;;;;;;;;;;;17.20;99.90;;;;;;5000858;28;20648;-62
2023/09/08 01:31:27;;;;;;;;;;;17.20;99.90;;;;;;4984458;28;20030;-63
2023/09/08 01:33:52;;;;;;;;;;;17.20;99.90;;;;;;5004994;28;20470;-62
2023/09/08 01:36:19;;;;;;;;;;;17.20;99.90;;;;;;4980382;28;19995;-62
2023/09/08 01:38:44;;;;;;;;;;;17.20;99.90;;;;;;5000771;28;20656;-61
2023/09/08 01:41:10;;;;;;;;;;;17.20;99.90;;;;;;4999881;28;20283;-62
2023/09/08 01:43:36;;;;;;;;;;;17.20;99.90;;;;;;4982961;28;19996;-62
2023/09/08 01:46:01;;;;;;;;;;;17.20;99.90;;;;;;4981709;28;19909;-62
2023/09/08 01:48:27;;;;;;;;;;;17.20;99.90;;;;;;5000976;28;19909;-62
2023/09/08 01:50:52;;;;;;;;;;;17.10;99.90;;;;;;4999632;28;19905;-62
2023/09/08 01:53:18;;;;;;;;;;;17.10;99.90;;;;;;5003474;28;19914;-61
2023/09/08 01:55:44;;;;;;;;;;;17.10;99.90;;;;;;5008735;28;20280;-62
2023/09/08 01:58:09;;;;;;;;;;;17.00;99.90;;;;;;4993258;28;19913;-62
2023/09/08 02:00:35;;;;;;;;;;;17.00;99.90;;;;;;4992742;28;19909;-62
2023/09/08 02:03:00;;;;;;;;;;;17.00;99.90;;;;;;4984890;28;19921;-62
2023/09/08 02:05:26;;;;;;;;;;;17.00;99.90;;;;;;4997792;28;20178;-62
2023/09/08 02:07:52;;;;;;;;;;;17.00;99.90;;;;;;5001452;28;20079;-62
2023/09/08 02:10:18;;;;;;;;;;;17.00;99.90;;;;;;5000466;28;19906;-62
2023/09/08 02:12:43;;;;;;;;;;;17.00;99.90;;;;;;4998451;28;20393;-61
2023/09/08 02:15:11;;;;;;;;;;;17.00;99.90;;;;;;5001370;28;19980;-62
2023/09/08 02:17:36;;;;;;;;;;;16.90;99.90;;;;;;5003983;28;19945;-62
2023/09/08 02:20:03;;;;;;;;;;;17.00;99.90;;;;;;4983223;28;20070;-62
2023/09/08 02:22:29;;;;;;;;;;;16.90;99.90;;;;;;5010736;28;20018;-62
2023/09/08 02:24:56;;;;;;;;;;;16.90;99.90;;;;;;5004514;28;19912;-62
2023/09/08 02:27:22;;;;;;;;;;;16.90;99.90;;;;;;5003065;28;20292;-62
2023/09/08 02:29:47;;;;;;;;;;;16.90;99.90;;;;;;5003100;28;19905;-61
2023/09/08 02:32:14;;;;;;;;;;;16.80;99.90;;;;;;5006306;28;19909;-61
2023/09/08 02:34:41;;;;;;;;;;;16.80;99.90;;;;;;5006448;28;19975;-62
2023/09/08 02:37:06;;;;;;;;;;;16.80;99.90;;;;;;5003003;28;19917;-64
2023/09/08 02:39:32;;;;;;;;;;;16.80;99.90;;;;;;5005959;28;20276;-62
2023/09/08 02:41:58;;;;;;;;;;;16.80;99.90;;;;;;4981290;28;19913;-62
2023/09/08 02:44:25;;;;;;;;;;;16.90;99.90;;;;;;5004464;28;20026;-61
2023/09/08 02:46:50;;;;;;;;;;;16.80;99.90;;;;;;5005689;28;19920;-62
2023/09/08 02:49:16;;;;;;;;;;;16.80;99.90;;;;;;4996265;28;20225;-62
2023/09/08 02:51:41;;;;;;;;;;;16.80;99.90;;;;;;4993101;28;20292;-62
2023/09/08 02:54:07;;;;;;;;;;;16.80;99.90;;;;;;5011331;28;19905;-64
2023/09/08 02:56:32;;;;;;;;;;;16.70;99.90;;;;;;5004767;28;19909;-62
2023/09/08 02:58:58;;;;;;;;;;;16.70;99.90;;;;;;5007228;28;19917;-62
2023/09/08 03:01:24;;;;;;;;;;;16.60;99.90;;;;;;5010348;28;20056;-62
2023/09/08 03:03:49;;;;;;;;;;;16.60;99.90;;;;;;5011694;28;19906;-62
2023/09/08 03:06:15;;;;;;;;;;;16.60;99.90;;;;;;4984432;28;19913;-62
2023/09/08 03:08:41;;;;;;;;;;;16.50;99.90;;;;;;5011432;28;19986;-62
2023/09/08 03:11:08;;;;;;;;;;;16.50;99.90;;;;;;5001055;28;19960;-62
2023/09/08 03:13:34;;;;;;;;;;;16.40;99.90;;;;;;4998849;28;19905;-61
2023/09/08 03:16:04;;;;;;;;;;;16.40;99.90;;;;;;5004398;28;19907;-63
2023/09/08 03:18:29;;;;;;;;;;;16.40;99.90;;;;;;4998657;28;19920;-62
2023/09/08 03:20:55;;;;;;;;;;;16.40;99.90;;;;;;4988638;28;19909;-62
2023/09/08 03:23:20;;;;;;;;;;;16.40;99.90;;;;;;5004710;28;20288;-62
2023/09/08 03:25:48;;;;;;;;;;;16.40;99.90;;;;;;5001322;28;20596;-62
2023/09/08 03:28:14;;;;;;;;;;;16.40;99.90;;;;;;5000821;28;19912;-62
2023/09/08 03:30:40;;;;;;;;;;;16.40;99.90;;;;;;5008199;28;20019;-61
2023/09/08 03:33:05;;;;;;;;;;;16.30;99.90;;;;;;5008675;28;19931;-62
2023/09/08 03:35:31;;;;;;;;;;;16.30;99.90;;;;;;4999701;28;19907;-62
2023/09/08 03:37:57;;;;;;;;;;;16.30;99.90;;;;;;5001259;28;20734;-63
2023/09/08 03:40:22;;;;;;;;;;;16.30;99.90;;;;;;5010013;28;19962;-62
2023/09/08 03:42:48;;;;;;;;;;;16.30;99.90;;;;;;5005435;28;20371;-62
2023/09/08 03:45:13;;;;;;;;;;;16.20;99.90;;;;;;4985174;28;19905;-62
2023/09/08 03:47:39;;;;;;;;;;;16.20;99.90;;;;;;4985677;28;19917;-62
2023/09/08 03:50:04;;;;;;;;;;;16.20;99.90;;;;;;4997682;28;19909;-62
2023/09/08 03:52:30;;;;;;;;;;;16.20;99.90;;;;;;5008304;28;19909;-62
2023/09/08 03:54:55;;;;;;;;;;;16.20;99.90;;;;;;4993073;28;19916;-62
2023/09/08 03:57:21;;;;;;;;;;;16.20;99.90;;;;;;5003578;28;20461;-62
2023/09/08 03:59:47;;;;;;;;;;;16.10;99.90;;;;;;4989804;28;19918;-62
2023/09/08 04:02:12;;;;;;;;;;;16.10;99.90;;;;;;5006226;28;20280;-62
2023/09/08 04:04:38;;;;;;;;;;;16.10;99.90;;;;;;5009624;28;19912;-62
2023/09/08 04:07:03;;;;;;;;;;;16.10;99.90;;;;;;4998603;28;19905;-61
2023/09/08 04:09:29;;;;;;;;;;;16.10;99.90;;;;;;4986949;28;19921;-62
2023/09/08 04:11:55;;;;;;;;;;;16.00;99.90;;;;;;5004265;28;20329;-64
2023/09/08 04:14:21;;;;;;;;;;;16.10;99.90;;;;;;4999191;28;19955;-61
2023/09/08 04:16:46;;;;;;;;;;;16.10;99.90;;;;;;5004933;28;20004;-66
2023/09/08 04:19:12;;;;;;;;;;;16.10;99.90;;;;;;4994749;28;19991;-66
2023/09/08 04:21:37;;;;;;;;;;;16.10;99.90;;;;;;5008045;28;20419;-65
2023/09/08 04:24:04;;;;;;;;;;;16.10;99.90;;;;;;5001290;28;19916;-66
2023/09/08 04:26:29;;;;;;;;;;;16.10;99.90;;;;;;5008997;28;20387;-66
2023/09/08 04:28:55;;;;;;;;;;;16.10;99.90;;;;;;4984487;28;19905;-68
2023/09/08 04:31:21;;;;;;;;;;;16.10;99.90;;;;;;4989657;28;20365;-65
2023/09/08 04:33:47;;;;;;;;;;;16.20;99.90;;;;;;5011047;28;19944;-65
2023/09/08 04:36:13;;;;;;;;;;;16.10;99.90;;;;;;4982035;28;20352;-64
2023/09/08 04:38:38;;;;;;;;;;;16.20;99.90;;;;;;4979427;28;20372;-65
2023/09/08 04:41:04;;;;;;;;;;;16.20;99.90;;;;;;4987809;28;19984;-66
2023/09/08 04:43:29;;;;;;;;;;;16.10;99.90;;;;;;5003856;28;20352;-65
2023/09/08 04:45:55;;;;;;;;;;;16.20;99.90;;;;;;4985321;28;19916;-67
2023/09/08 04:48:20;;;;;;;;;;;16.30;99.90;;;;;;4998711;28;20332;-65
2023/09/08 04:50:46;;;;;;;;;;;16.40;99.90;;;;;;4989235;28;19913;-66
2023/09/08 04:53:12;;;;;;;;;;;16.50;99.90;;;;;;5002875;28;19917;-66
2023/09/08 04:55:37;;;;;;;;;;;16.60;99.90;;;;;;4990006;28;19913;-65
2023/09/08 04:58:04;;;;;;;;;;;16.70;99.90;;;;;;5000947;28;19932;-65
2023/09/08 05:00:29;;;;;;;;;;;16.90;99.90;;;;;;5005956;28;20152;-65
2023/09/08 05:02:55;;;;;;;;;;;17.20;99.90;;;;;;5009417;28;19905;-66
2023/09/08 05:05:20;;;;;;;;;;;17.50;99.90;;;;;;5007730;28;19920;-65
2023/09/08 05:07:47;;;;;;;;;;;18.10;99.90;;;;;;4996711;28;20388;-65
2023/09/08 05:10:13;;;;;;;;;;;18.70;99.90;;;;;;5003110;28;20316;-66
2023/09/08 05:12:39;;;;;;;;;;;19.00;99.90;;;;;;5005069;28;19910;-67
2023/09/08 05:15:10;;;;;;;;;;;19.10;99.90;;;;;;4981332;28;19910;-66
2023/09/08 05:17:35;;;;;;;;;;;19.60;99.90;;;;;;4999336;28;19992;-67
2023/09/08 05:20:02;;;;;;;;;;;19.80;99.90;;;;;;5000610;28;19909;-67
2023/09/08 05:22:27;;;;;;;;;;;20.00;99.90;;;;;;5000417;28;19916;-68
2023/09/08 05:24:53;;;;;;;;;;;20.20;99.90;;;;;;4991607;28;19905;-66
2023/09/08 05:27:18;;;;;;;;;;;20.30;99.90;;;;;;4984093;28;20173;-65
2023/09/08 05:29:44;;;;;;;;;;;20.30;99.90;;;;;;5001056;28;19924;-66
2023/09/08 05:32:09;;;;;;;;;;;20.50;99.90;;;;;;5005344;28;19927;-65
2023/09/08 05:34:35;;;;;;;;;;;20.70;99.90;;;;;;5011703;28;19919;-67
2023/09/08 05:37:00;;;;;;;;;;;21.10;99.90;;;;;;4996896;28;19910;-65
2023/09/08 05:39:26;;;;;;;;;;;21.20;99.90;;;;;;4998898;28;19909;-68
2023/09/08 05:41:52;;;;;;;;;;;21.10;99.90;;;;;;5002581;28;19912;-65
2023/09/08 05:44:17;;;;;;;;;;;21.20;99.90;;;;;;4984774;28;19913;-65
2023/09/08 05:46:43;;;;;;;;;;;21.20;99.90;;;;;;4996062;28;19909;-66
2023/09/08 05:49:09;;;;;;;;;;;21.50;99.90;;;;;;4981059;28;19901;-65
2023/09/08 05:51:34;;;;;;;;;;;21.70;99.90;;;;;;5004077;28;19910;-65
2023/09/08 05:54:00;;;;;;;;;;;22.30;99.90;;;;;;5007912;28;20268;-67
2023/09/08 05:56:33;;;;;;;;;;;22.20;99.90;;;;;;5008682;28;20375;-68
2023/09/08 05:58:58;;;;;;;;;;;22.80;99.90;;;;;;4988072;28;20378;-69
2023/09/08 06:01:24;;;;;;;;;;;23.10;99.90;;;;;;5007697;28;19937;-67
2023/09/08 06:03:50;;;;;;;;;;;23.10;99.90;;;;;;5012052;28;19913;-67
2023/09/08 06:06:15;;;;;;;;;;;23.70;99.90;;;;;;4985368;28;19913;-68
2023/09/08 06:08:41;;;;;;;;;;;24.20;99.60;;;;;;4989706;28;19905;-66
2023/09/08 06:11:06;;;;;;;;;;;24.10;99.00;;;;;;5007614;28;19963;-68
2023/09/08 06:13:33;;;;;;;;;;;24.20;98.50;;;;;;4985617;28;19948;-66
2023/09/08 06:15:58;;;;;;;;;;;24.10;98.70;;;;;;5005453;28;19988;-66
2023/09/08 06:18:24;;;;;;;;;;;24.50;98.10;;;;;;5003921;28;20007;-67
2023/09/08 06:20:49;;;;;;;;;;;25.00;97.30;;;;;;5005994;28;19913;-67
2023/09/08 06:23:15;;;;;;;;;;;25.70;96.20;;;;;;5001450;28;19967;-66
2023/09/08 06:25:42;;;;;;;;;;;25.10;96.10;;;;;;4996540;28;20267;-66
2023/09/08 06:28:07;;;;;;;;;;;25.00;96.00;;;;;;4989128;28;20000;-66
2023/09/08 06:30:33;;;;;;;;;;;25.40;95.60;;;;;;5008936;28;20024;-67
2023/09/08 06:32:58;;;;;;;;;;;25.90;94.80;;;;;;5005154;28;20343;-68
2023/09/08 06:35:25;;;;;;;;;;;26.70;94.80;;;;;;5008121;28;20004;-67
2023/09/08 06:37:51;;;;;;;;;;;27.80;91.80;;;;;;5004606;28;19917;-67
2023/09/08 06:40:16;;;;;;;;;;;27.50;91.60;;;;;;5000840;28;19913;-67
2023/09/08 06:42:42;;;;;;;;;;;27.70;90.70;;;;;;5006417;28;20357;-67
2023/09/08 06:45:08;;;;;;;;;;;28.20;90.00;;;;;;4999309;28;20012;-67
2023/09/08 06:47:33;;;;;;;;;;;28.50;89.20;;;;;;5003729;28;19959;-66
2023/09/08 06:49:59;;;;;;;;;;;28.90;86.80;;;;;;4999503;28;20008;-66
2023/09/08 06:52:24;;;;;;;;;;;29.20;85.80;;;;;;5012364;28;19916;-68
2023/09/08 06:54:50;;;;;;;;;;;29.00;84.80;;;;;;5005905;28;19913;-67
2023/09/08 06:57:18;;;;;;;;;;;29.30;84.20;;;;;;5006957;28;20664;-66
2023/09/08 06:59:43;;;;;;;;;;;29.90;82.10;;;;;;5003648;28;20442;-68
2023/09/08 07:02:09;;;;;;;;;;;30.80;80.70;;;;;;5007083;28;20032;-68
2023/09/08 07:04:34;;;;;;;;;;;31.00;78.90;;;;;;5012802;28;19909;-68
2023/09/08 07:07:06;;;;;;;;;;;31.30;77.90;;;;;;5001535;28;20008;-67
2023/09/08 07:09:32;;;;;;;;;;;31.10;76.60;;;;;;5000772;28;20012;-66
2023/09/08 07:11:58;;;;;;;;;;;32.00;74.80;;;;;;5002044;28;19915;-69
2023/09/08 07:14:24;;;;;;;;;;;32.00;74.10;;;;;;4988821;28;19905;-69
2023/09/08 07:16:49;;;;;;;;;;;33.10;72.40;;;;;;5005524;28;19920;-69
2023/09/08 07:19:15;;;;;;;;;;;34.30;70.00;;;;;;5001249;28;19960;-68
2023/09/08 07:21:40;;;;;;;;;;;35.10;69.00;;;;;;5006832;28;20008;-70
2023/09/08 07:24:06;;;;;;;;;;;35.20;66.30;;;;;;5003248;28;20363;-68
2023/09/08 07:26:32;;;;;;;;;;;33.70;67.40;;;;;;5004427;28;20000;-67
2023/09/08 07:28:57;;;;;;;;;;;34.40;66.10;;;;;;4989116;28;19909;-67
2023/09/08 07:31:23;;;;;;;;;;;34.70;66.00;;;;;;5006082;28;19909;-68
2023/09/08 07:33:48;;;;;;;;;;;34.90;64.50;;;;;;5012649;28;20380;-65
2023/09/08 07:36:14;;;;;;;;;;;34.10;64.40;;;;;;4999507;28;20000;-67
2023/09/08 07:38:39;;;;;;;;;;;34.50;65.10;;;;;;5006048;28;20396;-67
2023/09/08 07:41:05;;;;;;;;;;;35.10;64.20;;;;;;4998892;28;20652;-68
2023/09/08 07:43:30;;;;;;;;;;;35.70;63.60;;;;;;5003505;28;19971;-67
2023/09/08 07:45:56;;;;;;;;;;;34.80;63.40;;;;;;5005097;28;20375;-67
2023/09/08 07:48:21;;;;;;;;;;;34.30;63.90;;;;;;5004283;28;19916;-67
2023/09/08 07:50:47;;;;;;;;;;;34.40;63.90;;;;;;5004022;28;20809;-68
2023/09/08 07:53:12;;;;;;;;;;;35.60;63.00;;;;;;5000825;28;19912;-67
2023/09/08 07:55:38;;;;;;;;;;;35.50;62.70;;;;;;5004603;28;20003;-68
2023/09/08 07:58:04;;;;;;;;;;;34.90;62.90;;;;;;4999527;28;19921;-66
2023/09/08 08:00:30;;;;;;;;;;;34.60;63.80;;;;;;5003302;28;20546;-69
2023/09/08 08:02:56;;;;;;;;;;;35.20;62.40;;;;;;5008813;28;19909;-67
2023/09/08 08:05:22;;;;;;;;;;;35.30;62.70;;;;;;5005022;28;19920;-67
2023/09/08 08:07:48;;;;;;;;;;;35.80;62.60;;;;;;4998623;28;20474;-66
2023/09/08 08:10:14;;;;;;;;;;;37.10;61.10;;;;;;4985532;28;19905;-67
2023/09/08 08:12:40;;;;;;;;;;;37.50;60.50;;;;;;5002754;28;19916;-67
2023/09/08 08:15:06;;;;;;;;;;;37.00;60.60;;;;;;5004041;28;19913;-67
2023/09/08 08:17:31;;;;;;;;;;;35.60;60.10;;;;;;4981850;28;20633;-67
2023/09/08 08:20:06;;;;;;;;;;;33.30;63.50;;;;;;5001604;28;20097;-68
2023/09/08 08:22:32;;;;;;;;;;;34.20;63.70;;;;;;4999215;28;19905;-67
2023/09/08 08:24:58;;;;;;;;;;;34.90;62.90;;;;;;5011928;28;20407;-69
2023/09/08 08:27:24;;;;;;;;;;;33.00;63.90;;;;;;5001719;28;19992;-67
2023/09/08 08:29:50;;;;;;;;;;;31.00;66.60;;;;;;5006613;28;19924;-68
2023/09/08 08:32:16;;;;;;;;;;;32.00;66.80;;;;;;5006028;28;19963;-67
2023/09/08 08:34:42;;;;;;;;;;;31.50;66.90;;;;;;5009641;28;19909;-68
2023/09/08 08:37:07;;;;;;;;;;;32.80;66.10;;;;;;4982876;28;19906;-67
2023/09/08 08:39:33;;;;;;;;;;;32.50;65.80;;;;;;5000037;28;20523;-68
2023/09/08 08:41:58;;;;;;;;;;;34.40;64.70;;;;;;4986594;28;20714;-67
2023/09/08 08:44:24;;;;;;;;;;;33.80;64.10;;;;;;4985064;28;20514;-67
2023/09/08 08:46:51;;;;;;;;;;;34.70;62.90;;;;;;4986306;28;20355;-68
2023/09/08 08:49:17;;;;;;;;;;;35.70;62.40;;;;;;4979298;28;19909;-68
2023/09/08 08:51:45;;;;;;;;;;;36.80;60.50;;;;;;5008693;28;20383;-68
2023/09/08 08:54:15;;;;;;;;;;;36.60;60.20;;;;;;5004857;28;19979;-67
2023/09/08 08:56:41;;;;;;;;;;;34.00;62.40;;;;;;5001962;28;20000;-68
2023/09/08 08:59:06;;;;;;;;;;;34.90;62.40;;;;;;5000286;28;20028;-68
2023/09/08 09:01:33;;;;;;;;;;;35.90;61.10;;;;;;4988867;28;19959;-68
2023/09/08 09:03:58;;;;;;;;;;;35.90;60.70;;;;;;5011095;28;19909;-69
2023/09/08 09:06:24;;;;;;;;;;;36.30;60.10;;;;;;4999377;28;19909;-68
2023/09/08 09:08:50;;;;;;;;;;;36.20;59.30;;;;;;5003749;28;20020;-66
2023/09/08 09:11:15;;;;;;;;;;;35.40;59.30;;;;;;5002472;28;20266;-68
2023/09/08 09:13:41;;;;;;;;;;;35.60;59.30;;;;;;4996030;28;19910;-68
2023/09/08 09:16:10;;;;;;;;;;;35.60;59.10;;;;;;5003344;28;20725;-68
2023/09/08 09:18:55;;;;;;;;;;;36.30;59.30;;;;;;4982586;28;20361;-67
2023/09/08 09:21:21;;;;;;;;;;;37.60;57.70;;;;;;4999863;28;19913;-67
2023/09/08 09:23:46;;;;;;;;;;;38.40;56.80;;;;;;5004576;28;20356;-67
2023/09/08 09:26:22;;;;;;;;;;;38.20;56.70;;;;;;5008213;28;20383;-68
2023/09/08 09:28:48;;;;;;;;;;;38.60;55.70;;;;;;5006160;28;20430;-67
2023/09/08 09:31:13;;;;;;;;;;;38.70;55.60;;;;;;5009009;28;19936;-69
2023/09/08 09:33:39;;;;;;;;;;;37.60;55.50;;;;;;5007198;28;20347;-66
2023/09/08 09:36:05;;;;;;;;;;;37.40;55.60;;;;;;5001732;28;19909;-66
2023/09/08 09:38:31;;;;;;;;;;;38.30;54.80;;;;;;5005490;28;19914;-68
2023/09/08 09:40:58;;;;;;;;;;;38.90;54.70;;;;;;5009272;28;19911;-68
2023/09/08 09:43:23;;;;;;;;;;;39.50;54.80;;;;;;5006573;28;19975;-68
2023/09/08 09:45:49;;;;;;;;;;;39.20;54.80;;;;;;4999169;28;20243;-68
2023/09/08 09:48:15;;;;;;;;;;;39.30;53.70;;;;;;5010716;28;19914;-68
2023/09/08 09:50:42;;;;;;;;;;;39.90;53.90;;;;;;5008985;28;19978;-66
2023/09/08 09:53:10;;;;;;;;;;;39.60;53.70;;;;;;5006180;28;20334;-67
2023/09/08 09:55:36;;;;;;;;;;;38.80;52.80;;;;;;5009836;28;19909;-68
2023/09/08 09:58:03;;;;;;;;;;;38.70;53.30;;;;;;5005514;28;20576;-67
2023/09/08 10:00:29;;;;;;;;;;;38.90;53.20;;;;;;4987047;28;19913;-68
2023/09/08 10:02:55;;;;;;;;;;;38.70;52.40;;;;;;5007532;28;19920;-68
2023/09/08 10:05:21;;;;;;;;;;;38.00;52.30;;;;;;4974106;28;19923;-68
2023/09/08 10:07:47;;;;;;;;;;;38.70;52.90;;;;;;5000391;28;21264;-68
2023/09/08 10:10:13;;;;;;;;;;;38.80;52.30;;;;;;4998866;28;19909;-68
2023/09/08 10:12:40;;;;;;;;;;;38.50;51.70;;;;;;4997546;28;19979;-67
2023/09/08 10:15:06;;;;;;;;;;;39.40;51.60;;;;;;5002255;28;19916;-67
2023/09/08 10:17:33;;;;;;;;;;;37.90;51.50;;;;;;4998082;28;20496;-70
2023/09/08 10:20:00;;;;;;;;;;;38.30;51.50;;;;;;4996249;28;20013;-71
2023/09/08 10:22:29;;;;;;;;;;;37.90;52.40;;;;;;5008310;28;20008;-69
2023/09/08 10:24:56;;;;;;;;;;;37.30;51.60;;;;;;5010516;28;19915;-69
2023/09/08 10:27:23;;;;;;;;;;;36.60;52.80;;;;;;4985918;28;19987;-71
2023/09/08 10:29:49;;;;;;;;;;;37.80;53.30;;;;;;4996611;28;21117;-67
2023/09/08 10:32:15;;;;;;;;;;;39.10;52.20;;;;;;4999751;28;19924;-68
2023/09/08 10:34:41;;;;;;;;;;;39.00;51.20;;;;;;4998872;28;19917;-67
2023/09/08 10:37:25;;;;;;;;;;;39.10;50.20;;;;;;5000344;28;20488;-68
2023/09/08 10:39:51;;;;;;;;;;;38.30;51.10;;;;;;4995900;28;20858;-71
2023/09/08 10:42:17;;;;;;;;;;;37.90;51.90;;;;;;5002092;28;19913;-68
2023/09/08 10:45:05;;;;;;;;;;;38.30;51.90;;;;;;5000585;28;19910;-65
2023/09/08 10:47:54;;;;;;;;;;;37.10;51.30;;;;;;4995962;28;20289;-71
2023/09/08 10:50:25;;;;;;;;;;;38.00;51.30;;;;;;4992993;28;20442;-71
2023/09/08 10:53:13;;;;;;;;;;;38.10;51.10;;;;;;4984395;28;19920;-70
2023/09/08 10:55:42;;;;;;;;;;;38.60;50.80;;;;;;4995338;28;19913;-68
2023/09/08 10:58:11;;;;;;;;;;;38.90;49.90;;;;;;4996553;28;19914;-60
2023/09/08 11:00:44;;;;;;;;;;;36.60;51.50;;;;;;4995771;28;20000;-69
2023/09/08 11:03:11;;;;;;;;;;;34.60;53.70;;;;;;5010262;28;19975;-70
2023/09/08 11:05:37;;;;;;;;;;;33.00;54.60;;;;;;5003556;28;19916;-68
2023/09/08 11:08:03;;;;;;;;;;;30.90;56.10;;;;;;4986880;28;19905;-68
2023/09/08 11:10:30;;;;;;;;;;;29.90;58.80;;;;;;4998726;28;19984;-69
2023/09/08 11:12:56;;;;;;;;;;;29.30;59.60;;;;;;4990092;28;19905;-67
2023/09/08 11:15:21;;;;;;;;;;;29.40;61.00;;;;;;4984233;28;20527;-66
2023/09/08 11:17:50;;;;;;;;;;;29.20;59.50;;;;;;5002150;28;20650;-68
2023/09/08 11:20:17;;;;;;;;;;;29.20;60.00;;;;;;4998635;28;19967;-74
2023/09/08 11:22:43;;;;;;;;;;;29.10;60.00;;;;;;5003313;28;20388;-74
2023/09/08 11:25:11;;;;;;;;;;;29.00;59.80;;;;;;4987022;28;19905;-73
2023/09/08 11:27:39;;;;;;;;;;;28.50;60.50;;;;;;4999070;28;19991;-71
2023/09/08 11:30:06;;;;;;;;;;;28.40;61.30;;;;;;4999561;28;20432;-70
2023/09/08 11:32:32;;;;;;;;;;;28.50;61.00;;;;;;5001033;28;20509;-70
2023/09/08 11:35:07;;;;;;;;;;;28.50;62.10;;;;;;5004392;28;19948;-70
2023/09/08 11:37:34;;;;;;;;;;;28.50;61.60;;;;;;4978708;28;19909;-67
2023/09/08 11:40:00;;;;;;;;;;;28.40;61.10;;;;;;4999781;28;20024;-67
2023/09/08 11:42:25;;;;;;;;;;;28.50;61.30;;;;;;4996658;28;19917;-65
2023/09/08 11:44:51;;;;;;;;;;;28.80;61.20;;;;;;4992449;28;19967;-66
2023/09/08 11:47:17;;;;;;;;;;;28.80;61.20;;;;;;5002443;28;20443;-66
2023/09/08 11:49:44;;;;;;;;;;;29.10;61.40;;;;;;4998739;28;19920;-65
2023/09/08 11:52:10;;;;;;;;;;;29.10;61.00;;;;;;5006009;28;19905;-67
2023/09/08 11:54:41;;;;;;;;;;;28.70;60.20;;;;;;5009073;28;19932;-67
2023/09/08 11:57:08;;;;;;;;;;;28.80;60.10;;;;;;5004793;28;19905;-67
2023/09/08 11:59:34;;;;;;;;;;;28.90;60.80;;;;;;4980107;28;19920;-66
2023/09/08 12:02:00;;;;;;;;;;;29.30;59.60;;;;;;4983068;28;19913;-69
2023/09/08 12:04:25;;;;;;;;;;;29.40;59.20;;;;;;5001131;28;19928;-68
2023/09/08 12:06:52;;;;;;;;;;;29.40;59.60;;;;;;4999282;28;19909;-66
2023/09/08 12:09:18;;;;;;;;;;;29.40;60.40;;;;;;4998713;28;20474;-66
2023/09/08 12:11:44;;;;;;;;;;;29.40;59.80;;;;;;4999404;28;20437;-66
2023/09/08 12:14:13;;;;;;;;;;;29.20;60.90;;;;;;4994304;28;20022;-65
2023/09/08 12:16:39;;;;;;;;;;;28.70;59.70;;;;;;4998706;28;19905;-67
2023/09/08 12:19:06;;;;;;;;;;;28.50;60.80;;;;;;4995685;28;20031;-67
2023/09/08 12:21:32;;;;;;;;;;;28.60;60.90;;;;;;4998102;28;19909;-66
2023/09/08 12:23:58;;;;;;;;;;;28.80;60.20;;;;;;4998749;28;19909;-67
2023/09/08 12:26:27;;;;;;;;;;;28.90;59.30;;;;;;4993257;28;20340;-67
2023/09/08 12:28:52;;;;;;;;;;;29.10;58.60;;;;;;4984813;28;20299;-65
2023/09/08 12:31:18;;;;;;;;;;;29.00;58.20;;;;;;5003762;28;19913;-66
2023/09/08 12:33:44;;;;;;;;;;;28.90;58.00;;;;;;5000893;28;19917;-65
2023/09/08 12:36:10;;;;;;;;;;;29.00;57.90;;;;;;4999249;28;19914;-66
2023/09/08 12:38:36;;;;;;;;;;;29.00;58.80;;;;;;4996596;28;19971;-65
2023/09/08 12:41:05;;;;;;;;;;;29.00;57.60;;;;;;5000868;28;19967;-66
2023/09/08 12:43:31;;;;;;;;;;;29.00;57.20;;;;;;5003409;28;20372;-67
2023/09/08 12:45:57;;;;;;;;;;;29.10;57.30;;;;;;5000335;28;19905;-66
2023/09/08 12:48:23;;;;;;;;;;;29.10;57.20;;;;;;4984459;28;20400;-66
2023/09/08 12:50:48;;;;;;;;;;;28.90;58.00;;;;;;5002650;28;20013;-65
2023/09/08 12:53:14;;;;;;;;;;;28.50;57.50;;;;;;5003535;28;20239;-65
2023/09/08 12:55:40;;;;;;;;;;;28.40;57.20;;;;;;4986012;28;19914;-65
2023/09/08 12:58:05;;;;;;;;;;;28.40;57.90;;;;;;5000753;28;19944;-63
2023/09/08 13:00:31;;;;;;;;;;;28.30;57.80;;;;;;4995493;28;19913;-65
2023/09/08 13:02:57;;;;;;;;;;;28.30;57.80;;;;;;5005762;28;20261;-62
2023/09/08 13:05:23;;;;;;;;;;;28.30;56.90;;;;;;5004687;28;20003;-67
2023/09/08 13:07:48;;;;;;;;;;;28.30;58.00;;;;;;4999121;28;20029;-65
2023/09/08 13:10:14;;;;;;;;;;;28.30;59.10;;;;;;5001282;28;19918;-65
2023/09/08 13:12:41;;;;;;;;;;;28.30;59.70;;;;;;4997776;28;19909;-65
2023/09/08 13:15:07;;;;;;;;;;;28.30;59.50;;;;;;5001981;28;19905;-66
2023/09/08 13:17:33;;;;;;;;;;;28.40;56.80;;;;;;5000468;28;19989;-65
2023/09/08 13:19:59;;;;;;;;;;;28.40;57.10;;;;;;4999921;28;20364;-64
2023/09/08 13:22:24;;;;;;;;;;;28.50;57.50;;;;;;5005066;28;19909;-64
2023/09/08 13:24:50;;;;;;;;;;;28.30;58.50;;;;;;4991789;28;19913;-66
2023/09/08 13:27:17;;;;;;;;;;;28.30;58.60;;;;;;4997009;28;20719;-66
2023/09/08 13:29:43;;;;;;;;;;;28.20;58.20;;;;;;5002715;28;19905;-66
2023/09/08 13:32:09;;;;;;;;;;;28.30;58.50;;;;;;5003805;28;20455;-66
2023/09/08 13:34:35;;;;;;;;;;;28.30;59.20;;;;;;5000681;28;19913;-65
2023/09/08 13:37:02;;;;;;;;;;;28.20;59.20;;;;;;5000690;28;19993;-66
2023/09/08 13:39:28;;;;;;;;;;;28.20;59.70;;;;;;5003216;28;20012;-64
2023/09/08 13:41:55;;;;;;;;;;;28.20;59.20;;;;;;5003112;28;20426;-65
2023/09/08 13:44:21;;;;;;;;;;;28.10;59.20;;;;;;4997368;28;19975;-65
2023/09/08 13:46:48;;;;;;;;;;;28.20;59.20;;;;;;4999956;28;19941;-66
2023/09/08 13:49:14;;;;;;;;;;;28.20;58.90;;;;;;4975775;28;19909;-64
2023/09/08 13:51:40;;;;;;;;;;;28.10;58.40;;;;;;5001967;28;19991;-64
2023/09/08 13:54:07;;;;;;;;;;;28.00;59.40;;;;;;5006592;28;20581;-65
2023/09/08 13:56:33;;;;;;;;;;;27.90;59.90;;;;;;5006806;28;19948;-65
2023/09/08 13:59:01;;;;;;;;;;;27.80;59.30;;;;;;4997076;28;20404;-64
2023/09/08 14:01:28;;;;;;;;;;;27.80;59.80;;;;;;4998967;28;20555;-67
2023/09/08 14:03:55;;;;;;;;;;;27.90;60.10;;;;;;5008939;28;19913;-67
2023/09/08 14:06:23;;;;;;;;;;;27.80;59.60;;;;;;4997075;28;19913;-68
2023/09/08 14:08:49;;;;;;;;;;;27.80;59.60;;;;;;5002647;28;19909;-66
2023/09/08 14:11:15;;;;;;;;;;;27.80;59.30;;;;;;4999264;28;19968;-65